createdAt,value
2017-08-30T00:01:44.436Z,16.90
2017-08-30T00:04:12.822Z,16.80
2017-08-30T00:06:41.224Z,16.80
2017-08-30T00:09:09.613Z,16.80
2017-08-30T00:11:37.931Z,16.80
2017-08-30T00:14:06.224Z,16.70
2017-08-30T00:16:34.535Z,16.70
2017-08-30T00:19:02.816Z,16.70
2017-08-30T00:21:31.164Z,16.60
2017-08-30T00:23:59.476Z,16.70
2017-08-30T00:26:28.682Z,16.70
2017-08-30T00:28:57.019Z,16.70
2017-08-30T00:31:25.308Z,16.70
2017-08-30T00:33:53.591Z,16.80
2017-08-30T00:36:22.004Z,16.80
2017-08-30T00:38:50.334Z,16.70
2017-08-30T00:41:18.657Z,16.70
2017-08-30T00:43:46.936Z,16.80
2017-08-30T00:46:15.243Z,16.70
2017-08-30T00:48:44.345Z,16.80
2017-08-30T00:51:12.684Z,16.70
2017-08-30T00:53:41.017Z,16.60
2017-08-30T00:56:09.348Z,16.60
2017-08-30T00:58:37.641Z,16.60
2017-08-30T01:01:05.919Z,16.60
2017-08-30T01:03:34.310Z,16.50
2017-08-30T01:06:02.604Z,16.50
2017-08-30T01:08:30.919Z,16.50
2017-08-30T01:10:59.284Z,16.50
2017-08-30T01:13:27.676Z,16.50
2017-08-30T01:15:55.992Z,16.50
2017-08-30T01:18:24.369Z,16.40
2017-08-30T01:20:52.744Z,16.40
2017-08-30T01:23:21.139Z,16.40
2017-08-30T01:25:49.415Z,16.30
2017-08-30T01:28:17.824Z,16.30
2017-08-30T01:30:46.136Z,16.30
2017-08-30T01:33:14.457Z,16.30
2017-08-30T01:35:42.740Z,16.30
2017-08-30T01:38:11.093Z,16.30
2017-08-30T01:40:39.480Z,16.20
2017-08-30T01:43:07.771Z,16.20
2017-08-30T01:45:36.146Z,16.10
2017-08-30T01:48:04.454Z,15.90
2017-08-30T01:50:32.741Z,15.90
2017-08-30T01:53:01.114Z,15.90
2017-08-30T01:55:29.404Z,15.80
2017-08-30T01:57:57.733Z,15.70
2017-08-30T02:00:26.048Z,15.60
2017-08-30T02:02:54.383Z,15.60
2017-08-30T02:05:22.777Z,15.40
2017-08-30T02:07:51.100Z,15.30
2017-08-30T02:10:19.447Z,15.10
2017-08-30T02:12:47.849Z,15.10
2017-08-30T02:15:16.170Z,15.20
2017-08-30T02:17:44.469Z,15.20
2017-08-30T02:20:12.820Z,15.20
2017-08-30T02:22:41.103Z,15.10
2017-08-30T02:25:09.521Z,15.10
2017-08-30T02:27:37.803Z,15.10
2017-08-30T02:30:06.110Z,15.10
2017-08-30T02:32:34.408Z,15.00
2017-08-30T02:35:02.700Z,14.90
2017-08-30T02:37:31.033Z,14.90
2017-08-30T02:39:59.361Z,14.90
2017-08-30T02:42:27.719Z,14.90
2017-08-30T02:44:56.012Z,14.90
2017-08-30T02:47:24.391Z,14.90
2017-08-30T02:49:52.720Z,14.90
2017-08-30T02:52:21.089Z,14.90
2017-08-30T02:54:49.403Z,14.90
2017-08-30T02:57:18.615Z,14.90
2017-08-30T02:59:46.968Z,14.90
2017-08-30T03:02:15.296Z,15.00
2017-08-30T03:04:43.589Z,15.00
2017-08-30T03:07:11.943Z,15.10
2017-08-30T03:09:40.330Z,15.10
2017-08-30T03:12:08.716Z,15.10
2017-08-30T03:14:36.996Z,15.10
2017-08-30T03:17:05.309Z,15.10
2017-08-30T03:19:33.641Z,15.20
2017-08-30T03:22:01.996Z,15.20
2017-08-30T03:24:30.455Z,15.10
2017-08-30T03:26:58.758Z,15.10
2017-08-30T03:29:27.160Z,15.10
2017-08-30T03:31:55.443Z,15.00
2017-08-30T03:34:23.773Z,15.10
2017-08-30T03:36:52.073Z,15.00
2017-08-30T03:39:21.253Z,15.00
2017-08-30T03:41:49.631Z,15.00
2017-08-30T03:44:17.923Z,15.00
2017-08-30T03:46:46.311Z,14.90
2017-08-30T03:49:14.609Z,14.80
2017-08-30T03:51:43.003Z,14.90
2017-08-30T03:54:11.290Z,14.90
2017-08-30T03:56:39.671Z,15.00
2017-08-30T03:59:07.991Z,15.00
2017-08-30T04:01:37.075Z,15.10
2017-08-30T04:04:05.462Z,15.00
2017-08-30T04:06:33.768Z,15.10
2017-08-30T04:09:02.082Z,15.10
2017-08-30T04:11:30.380Z,15.20
2017-08-30T04:13:58.719Z,15.20
2017-08-30T04:16:27.060Z,15.20
2017-08-30T04:18:55.351Z,15.20
2017-08-30T04:21:23.649Z,15.20
2017-08-30T04:23:51.966Z,15.30
2017-08-30T04:26:20.251Z,15.30
2017-08-30T04:28:48.572Z,15.30
2017-08-30T04:31:16.892Z,15.40
2017-08-30T04:33:45.207Z,15.30
2017-08-30T04:36:13.536Z,15.40
2017-08-30T04:38:41.825Z,15.40
2017-08-30T04:41:10.221Z,15.40
2017-08-30T04:43:38.598Z,15.50
2017-08-30T04:46:06.893Z,15.50
2017-08-30T04:48:35.351Z,15.60
2017-08-30T04:51:03.635Z,15.60
2017-08-30T04:53:31.937Z,15.70
2017-08-30T04:56:00.347Z,15.80
2017-08-30T04:58:28.678Z,15.90
2017-08-30T05:00:56.992Z,16.10
2017-08-30T05:03:25.280Z,16.20
2017-08-30T05:05:53.578Z,16.30
2017-08-30T05:08:21.896Z,16.40
2017-08-30T05:10:50.291Z,16.60
2017-08-30T05:13:18.621Z,16.70
2017-08-30T05:15:46.972Z,16.80
2017-08-30T05:18:15.359Z,16.90
2017-08-30T05:20:43.675Z,17.00
2017-08-30T05:23:12.729Z,17.10
2017-08-30T05:25:41.148Z,17.10
2017-08-30T05:28:09.536Z,17.20
2017-08-30T05:30:37.857Z,17.30
2017-08-30T05:33:06.216Z,17.40
2017-08-30T05:35:34.536Z,17.50
2017-08-30T05:38:03.612Z,17.70
2017-08-30T05:40:31.895Z,17.70
2017-08-30T05:43:00.590Z,17.80
2017-08-30T05:45:28.884Z,17.90
2017-08-30T05:47:57.173Z,17.80
2017-08-30T05:50:25.497Z,18.00
2017-08-30T05:52:53.880Z,18.00
2017-08-30T05:55:22.266Z,18.20
2017-08-30T05:57:50.591Z,18.40
2017-08-30T06:00:18.902Z,18.50
2017-08-30T06:02:47.312Z,18.60
2017-08-30T06:05:15.613Z,18.70
2017-08-30T06:07:43.931Z,18.80
2017-08-30T06:10:12.239Z,18.90
2017-08-30T06:12:40.603Z,19.00
2017-08-30T06:15:08.888Z,19.10
2017-08-30T06:17:37.373Z,19.30
2017-08-30T06:20:05.660Z,19.30
2017-08-30T06:22:33.953Z,19.40
2017-08-30T06:25:02.352Z,19.50
2017-08-30T06:27:30.657Z,19.50
2017-08-30T06:29:58.975Z,19.60
2017-08-30T06:32:27.300Z,19.70
2017-08-30T06:34:55.593Z,19.80
2017-08-30T06:37:23.879Z,19.90
2017-08-30T06:39:52.286Z,20.00
2017-08-30T06:42:20.563Z,20.00
2017-08-30T06:44:48.884Z,20.00
2017-08-30T06:47:17.255Z,20.20
2017-08-30T06:49:45.576Z,20.30
2017-08-30T06:52:13.854Z,20.50
2017-08-30T06:54:43.139Z,20.70
2017-08-30T06:57:11.420Z,20.60
2017-08-30T06:59:39.718Z,20.80
2017-08-30T07:02:08.104Z,20.90
2017-08-30T07:04:36.407Z,21.10
2017-08-30T07:07:04.731Z,21.20
2017-08-30T07:09:33.010Z,21.40
2017-08-30T07:12:01.371Z,21.40
2017-08-30T07:14:29.656Z,21.50
2017-08-30T07:16:57.988Z,21.70
2017-08-30T07:19:26.330Z,21.80
2017-08-30T07:21:54.621Z,21.80
2017-08-30T07:24:22.939Z,22.00
2017-08-30T07:26:51.232Z,22.10
2017-08-30T07:29:19.586Z,22.20
2017-08-30T07:31:48.001Z,22.30
2017-08-30T07:34:16.393Z,22.50
2017-08-30T07:36:44.776Z,22.70
2017-08-30T07:39:13.064Z,22.70
2017-08-30T07:41:41.393Z,22.80
2017-08-30T07:44:09.685Z,22.90
2017-08-30T07:46:38.023Z,23.10
2017-08-30T07:49:06.349Z,23.20
2017-08-30T07:51:35.527Z,23.40
2017-08-30T07:54:03.803Z,23.40
2017-08-30T07:56:32.124Z,23.60
2017-08-30T07:59:00.412Z,23.70
2017-08-30T08:01:28.791Z,23.80
2017-08-30T08:03:57.172Z,24.00
2017-08-30T08:06:25.452Z,24.10
2017-08-30T08:08:53.855Z,24.10
2017-08-30T08:11:22.859Z,24.20
2017-08-30T08:13:51.171Z,24.30
2017-08-30T08:16:19.489Z,24.30
2017-08-30T08:18:47.826Z,24.40
2017-08-30T08:21:16.121Z,24.40
2017-08-30T08:23:44.431Z,24.50
2017-08-30T08:26:12.806Z,24.50
2017-08-30T08:28:41.112Z,24.70
2017-08-30T08:31:09.508Z,24.60
2017-08-30T08:33:37.885Z,24.60
2017-08-30T08:36:06.277Z,24.70
2017-08-30T08:38:34.565Z,24.90
2017-08-30T08:41:02.893Z,25.10
2017-08-30T08:43:31.237Z,25.20
2017-08-30T08:45:59.628Z,25.30
2017-08-30T08:48:27.960Z,25.40
2017-08-30T08:50:56.313Z,25.60
2017-08-30T08:53:24.597Z,25.60
2017-08-30T08:55:52.984Z,25.60
2017-08-30T08:58:21.308Z,25.70
2017-08-30T09:00:49.592Z,25.90
2017-08-30T09:03:17.877Z,25.90
2017-08-30T09:05:46.204Z,26.00
2017-08-30T09:08:14.530Z,26.10
2017-08-30T09:10:42.860Z,26.10
2017-08-30T09:13:11.153Z,26.10
2017-08-30T09:15:39.499Z,26.20
2017-08-30T09:18:07.837Z,26.40
2017-08-30T09:20:36.132Z,26.40
2017-08-30T09:23:04.448Z,26.50
2017-08-30T09:25:32.803Z,26.50
2017-08-30T09:28:01.177Z,26.60
2017-08-30T09:30:29.464Z,26.60
2017-08-30T09:32:57.771Z,26.70
2017-08-30T09:35:26.056Z,26.70
2017-08-30T09:37:55.141Z,26.90
2017-08-30T09:40:25.544Z,26.90
2017-08-30T09:42:58.369Z,27.00
2017-08-30T09:45:27.659Z,27.10
2017-08-30T09:47:56.215Z,27.10
2017-08-30T09:50:24.528Z,27.30
2017-08-30T09:52:52.846Z,27.30
2017-08-30T09:55:21.229Z,27.40
2017-08-30T09:57:49.511Z,27.50
2017-08-30T10:00:17.920Z,27.40
2017-08-30T10:02:46.504Z,27.50
2017-08-30T10:05:14.895Z,27.50
2017-08-30T10:07:43.488Z,27.50
2017-08-30T10:10:11.801Z,27.60
2017-08-30T10:12:40.124Z,27.80
2017-08-30T10:15:08.441Z,28.00
2017-08-30T10:17:36.718Z,28.10
2017-08-30T10:20:05.055Z,28.10
2017-08-30T10:22:33.339Z,28.20
2017-08-30T10:25:01.629Z,28.20
2017-08-30T10:27:30.021Z,28.20
2017-08-30T10:29:58.300Z,28.20
2017-08-30T10:32:26.618Z,28.20
2017-08-30T10:34:54.992Z,28.20
2017-08-30T10:37:23.356Z,28.20
2017-08-30T10:39:51.680Z,28.50
2017-08-30T10:42:20.001Z,28.50
2017-08-30T10:44:48.352Z,28.40
2017-08-30T10:47:17.551Z,28.50
2017-08-30T10:49:45.854Z,28.40
2017-08-30T10:52:14.140Z,28.50
2017-08-30T10:54:42.448Z,28.70
2017-08-30T10:57:10.820Z,28.70
2017-08-30T10:59:39.212Z,28.70
2017-08-30T11:02:07.500Z,28.70
2017-08-30T11:04:35.811Z,28.90
2017-08-30T11:07:04.103Z,28.80
2017-08-30T11:09:32.468Z,28.70
2017-08-30T11:12:00.747Z,28.70
2017-08-30T11:14:29.152Z,28.80
2017-08-30T11:16:57.607Z,29.00
2017-08-30T11:19:25.932Z,29.10
2017-08-30T11:21:54.210Z,29.00
2017-08-30T11:24:22.536Z,29.00
2017-08-30T11:26:50.834Z,28.90
2017-08-30T11:29:19.125Z,28.90
2017-08-30T11:31:47.412Z,28.80
2017-08-30T11:34:15.729Z,28.90
2017-08-30T11:36:44.034Z,29.00
2017-08-30T11:39:12.320Z,29.00
2017-08-30T11:41:40.650Z,29.10
2017-08-30T11:44:09.032Z,29.10
2017-08-30T11:46:37.429Z,29.00
2017-08-30T11:49:05.749Z,29.10
2017-08-30T11:51:34.108Z,29.20
2017-08-30T11:54:02.436Z,29.20
2017-08-30T11:56:30.739Z,29.20
2017-08-30T11:58:59.888Z,29.30
2017-08-30T12:01:28.217Z,29.20
2017-08-30T12:03:56.521Z,29.10
2017-08-30T12:06:24.841Z,29.10
2017-08-30T12:08:53.119Z,29.10
2017-08-30T12:11:21.412Z,29.20
2017-08-30T12:13:50.507Z,29.40
2017-08-30T12:16:18.856Z,29.40
2017-08-30T12:18:47.219Z,29.40
2017-08-30T12:21:15.607Z,29.40
2017-08-30T12:23:43.901Z,29.60
2017-08-30T12:26:12.586Z,29.50
2017-08-30T12:28:40.893Z,29.50
2017-08-30T12:31:09.995Z,29.50
2017-08-30T12:33:38.306Z,29.50
2017-08-30T12:36:06.680Z,29.60
2017-08-30T12:41:35.719Z,29.60
2017-08-30T12:44:04.937Z,29.50
2017-08-30T12:46:33.237Z,29.50
2017-08-30T12:49:02.296Z,29.50
2017-08-30T12:51:30.721Z,29.50
2017-08-30T12:53:59.039Z,29.60
2017-08-30T12:56:27.405Z,29.60
2017-08-30T12:58:55.719Z,29.50
2017-08-30T13:01:24.009Z,29.60
2017-08-30T13:03:52.334Z,29.60
2017-08-30T13:06:20.612Z,29.50
2017-08-30T13:08:49.689Z,29.50
2017-08-30T13:11:18.021Z,29.50
2017-08-30T13:13:46.299Z,29.50
2017-08-30T13:16:14.635Z,29.50
2017-08-30T13:18:42.941Z,29.60
2017-08-30T13:21:11.250Z,29.70
2017-08-30T13:23:39.567Z,29.70
2017-08-30T13:26:07.916Z,29.70
2017-08-30T13:28:36.991Z,29.80
2017-08-30T13:31:05.788Z,29.70
2017-08-30T13:33:34.199Z,29.80
2017-08-30T13:36:02.887Z,29.80
2017-08-30T13:38:31.216Z,29.70
2017-08-30T13:40:59.561Z,29.60
2017-08-30T13:43:27.866Z,29.50
2017-08-30T13:45:56.240Z,29.40
2017-08-30T13:48:24.641Z,29.30
2017-08-30T13:50:52.937Z,29.20
2017-08-30T13:53:21.222Z,29.20
2017-08-30T13:55:49.603Z,29.20
2017-08-30T13:58:17.892Z,29.30
2017-08-30T14:00:46.212Z,29.30
2017-08-30T14:03:14.501Z,29.30
2017-08-30T14:05:42.824Z,29.40
2017-08-30T14:08:11.125Z,29.30
2017-08-30T14:10:39.439Z,29.20
2017-08-30T14:13:07.732Z,29.10
2017-08-30T14:15:36.040Z,29.00
2017-08-30T14:18:04.416Z,28.90
2017-08-30T14:20:32.700Z,28.80
2017-08-30T14:23:01.100Z,28.80
2017-08-30T14:25:29.482Z,28.90
2017-08-30T14:27:57.885Z,29.00
2017-08-30T14:30:26.273Z,28.90
2017-08-30T14:32:54.657Z,28.80
2017-08-30T14:35:22.956Z,28.80
2017-08-30T14:37:51.272Z,28.80
2017-08-30T14:40:20.463Z,28.80
2017-08-30T14:42:48.781Z,28.80
2017-08-30T14:45:17.146Z,28.90
2017-08-30T14:47:45.523Z,28.90
2017-08-30T14:50:13.906Z,29.20
2017-08-30T14:52:42.299Z,29.40
2017-08-30T14:55:10.611Z,29.60
2017-08-30T14:57:38.976Z,29.70
2017-08-30T15:00:07.264Z,29.80
2017-08-30T15:02:35.589Z,29.70
2017-08-30T15:05:03.882Z,29.60
2017-08-30T15:07:32.208Z,29.40
2017-08-30T15:10:00.497Z,29.30
2017-08-30T15:12:28.789Z,29.20
2017-08-30T15:14:57.104Z,29.20
2017-08-30T15:17:25.394Z,29.20
2017-08-30T15:19:53.823Z,29.40
2017-08-30T15:22:22.147Z,29.40
2017-08-30T15:24:50.436Z,29.50
2017-08-30T15:27:19.322Z,29.60
2017-08-30T15:29:47.669Z,29.90
2017-08-30T15:32:16.047Z,30.50
2017-08-30T15:34:44.445Z,31.60
2017-08-30T15:37:12.776Z,32.60
2017-08-30T15:39:41.055Z,33.40
2017-08-30T15:42:09.367Z,33.90
2017-08-30T15:44:37.720Z,34.40
2017-08-30T15:47:10.650Z,34.60
2017-08-30T15:49:39.090Z,34.50
2017-08-30T15:52:07.492Z,33.80
2017-08-30T15:54:35.899Z,33.40
2017-08-30T15:57:04.450Z,33.50
2017-08-30T15:59:32.804Z,34.00
2017-08-30T16:02:01.162Z,34.20
2017-08-30T16:04:29.538Z,34.20
2017-08-30T16:06:57.837Z,34.00
2017-08-30T16:09:26.156Z,33.60
2017-08-30T16:11:55.290Z,32.30
2017-08-30T16:14:23.604Z,32.30
2017-08-30T16:16:52.020Z,31.80
2017-08-30T16:19:20.309Z,31.90
2017-08-30T16:21:48.615Z,32.20
2017-08-30T16:24:16.971Z,32.40
2017-08-30T16:26:45.382Z,32.50
2017-08-30T16:29:13.755Z,32.10
2017-08-30T16:31:42.043Z,31.90
2017-08-30T16:34:10.353Z,31.70
2017-08-30T16:36:38.676Z,31.70
2017-08-30T16:39:07.028Z,31.60
2017-08-30T16:41:36.478Z,31.30
2017-08-30T16:44:04.868Z,30.80
2017-08-30T16:46:33.156Z,30.30
2017-08-30T16:49:01.477Z,29.60
2017-08-30T16:51:29.765Z,29.10
2017-08-30T16:53:58.142Z,28.70
2017-08-30T16:56:26.501Z,28.20
2017-08-30T16:58:55.581Z,27.60
2017-08-30T17:01:23.964Z,27.60
2017-08-30T17:03:52.265Z,27.40
2017-08-30T17:06:20.568Z,27.20
2017-08-30T17:08:48.961Z,27.10
2017-08-30T17:11:17.243Z,26.90
2017-08-30T17:13:45.752Z,26.70
2017-08-30T17:16:14.045Z,26.60
2017-08-30T17:18:42.370Z,26.50
2017-08-30T17:21:10.818Z,26.30
2017-08-30T17:23:39.152Z,26.20
2017-08-30T17:26:07.432Z,26.10
2017-08-30T17:28:35.723Z,25.90
2017-08-30T17:31:05.934Z,25.70
2017-08-30T17:33:36.453Z,25.60
2017-08-30T17:36:06.666Z,25.30
2017-08-30T17:38:36.126Z,25.20
2017-08-30T17:41:04.447Z,25.10
2017-08-30T17:43:32.789Z,25.00
2017-08-30T17:46:01.168Z,24.90
2017-08-30T17:48:29.567Z,24.80
2017-08-30T17:50:58.061Z,24.80
2017-08-30T17:53:29.177Z,24.70
2017-08-30T17:55:57.759Z,24.60
2017-08-30T17:58:27.728Z,24.50
2017-08-30T18:00:57.638Z,24.30
2017-08-30T18:03:27.642Z,24.10
2017-08-30T18:05:59.489Z,24.10
2017-08-30T18:08:28.188Z,24.00
2017-08-30T18:10:56.481Z,24.00
2017-08-30T18:13:24.854Z,23.90
2017-08-30T18:15:53.181Z,23.90
2017-08-30T18:18:21.454Z,23.80
2017-08-30T18:20:49.823Z,23.80
2017-08-30T18:23:18.237Z,23.70
2017-08-30T18:25:46.624Z,23.70
2017-08-30T18:28:15.123Z,23.70
2017-08-30T18:30:43.394Z,23.60
2017-08-30T18:33:11.684Z,23.50
2017-08-30T18:35:40.216Z,23.40
2017-08-30T18:38:08.577Z,23.30
2017-08-30T18:40:36.968Z,23.20
2017-08-30T18:43:05.249Z,23.10
2017-08-30T18:45:33.651Z,23.00
2017-08-30T18:48:01.966Z,23.00
2017-08-30T18:50:30.251Z,23.00
2017-08-30T18:52:58.609Z,23.00
2017-08-30T18:55:26.906Z,22.90
2017-08-30T18:57:55.297Z,22.90
2017-08-30T19:00:23.580Z,23.00
2017-08-30T19:02:51.892Z,23.00
2017-08-30T19:05:20.971Z,22.90
2017-08-30T19:07:49.247Z,22.90
2017-08-30T19:10:19.946Z,22.90
2017-08-30T19:12:48.232Z,22.80
2017-08-30T19:15:16.721Z,22.80
2017-08-30T19:17:45.129Z,22.70
2017-08-30T19:20:13.417Z,22.60
2017-08-30T19:22:42.501Z,22.60
2017-08-30T19:25:10.792Z,22.60
2017-08-30T19:27:39.071Z,22.60
2017-08-30T19:30:07.489Z,22.60
2017-08-30T19:32:35.796Z,22.50
2017-08-30T19:35:04.111Z,22.50
2017-08-30T19:37:32.537Z,22.50
2017-08-30T19:40:00.851Z,22.50
2017-08-30T19:42:29.140Z,22.50
2017-08-30T19:44:57.560Z,22.50
2017-08-30T19:47:25.832Z,22.40
2017-08-30T19:49:54.114Z,22.40
2017-08-30T19:52:22.423Z,22.40
2017-08-30T19:54:51.705Z,22.40
2017-08-30T19:57:20.024Z,22.40
2017-08-30T19:59:48.299Z,22.40
2017-08-30T20:02:16.624Z,22.40
2017-08-30T20:04:44.911Z,22.30
2017-08-30T20:07:13.223Z,22.20
2017-08-30T20:09:41.507Z,22.20
2017-08-30T20:12:09.830Z,22.20
2017-08-30T20:14:38.142Z,22.10
2017-08-30T20:17:06.560Z,22.10
2017-08-30T20:19:34.841Z,22.10
2017-08-30T20:22:03.464Z,22.10
2017-08-30T20:24:31.814Z,22.10
2017-08-30T20:27:00.142Z,22.00
2017-08-30T20:29:28.425Z,22.00
2017-08-30T20:31:56.708Z,21.90
2017-08-30T20:34:25.022Z,21.80
2017-08-30T20:36:53.303Z,21.80
2017-08-30T20:39:21.592Z,21.80
2017-08-30T20:41:49.921Z,21.80
2017-08-30T20:44:18.997Z,21.80
2017-08-30T20:46:47.319Z,21.80
2017-08-30T20:49:15.599Z,21.80
2017-08-30T20:51:44.690Z,21.80
2017-08-30T20:54:12.985Z,21.90
2017-08-30T20:56:41.377Z,21.90
2017-08-30T20:59:09.696Z,21.90
2017-08-30T21:01:38.016Z,21.90
2017-08-30T21:04:06.291Z,21.90
2017-08-30T21:06:34.603Z,21.80
2017-08-30T21:09:02.923Z,21.80
2017-08-30T21:11:31.208Z,21.70
2017-08-30T21:13:59.597Z,21.70
2017-08-30T21:16:27.884Z,21.80
2017-08-30T21:18:56.205Z,21.70
2017-08-30T21:21:25.246Z,21.60
2017-08-30T21:23:53.559Z,21.60
2017-08-30T21:26:21.877Z,21.70
2017-08-30T21:28:51.077Z,21.70
2017-08-30T21:31:19.372Z,21.70
2017-08-30T21:33:47.660Z,21.70
2017-08-30T21:36:15.970Z,21.80
2017-08-30T21:38:45.032Z,21.70
2017-08-30T21:41:14.157Z,21.70
2017-08-30T21:43:42.633Z,21.60
2017-08-30T21:46:10.927Z,21.70
2017-08-30T21:48:39.238Z,21.70
2017-08-30T21:51:07.517Z,21.70
2017-08-30T21:53:35.908Z,21.70
2017-08-30T21:56:04.233Z,21.70
2017-08-30T21:58:32.526Z,21.70
2017-08-30T22:01:00.876Z,21.70
2017-08-30T22:03:29.173Z,21.70
2017-08-30T22:05:57.484Z,21.60
2017-08-30T22:08:25.767Z,21.60
2017-08-30T22:10:54.080Z,21.60
2017-08-30T22:13:22.386Z,21.60
2017-08-30T22:15:50.708Z,21.60
2017-08-30T22:18:18.979Z,21.70
2017-08-30T22:20:47.387Z,21.60
2017-08-30T22:23:15.771Z,21.60
2017-08-30T22:25:44.100Z,21.60
2017-08-30T22:28:12.465Z,21.60
2017-08-30T22:30:40.775Z,21.60
2017-08-30T22:33:09.851Z,21.50
2017-08-30T22:35:38.132Z,21.50
2017-08-30T22:38:06.456Z,21.50
2017-08-30T22:40:34.736Z,21.50
2017-08-30T22:43:03.394Z,21.50
2017-08-30T22:45:31.807Z,21.40
2017-08-30T22:48:00.500Z,21.40
2017-08-30T22:50:28.815Z,21.40
2017-08-30T22:52:57.113Z,21.30
2017-08-30T22:55:25.488Z,21.30
2017-08-30T22:57:53.799Z,21.30
2017-08-30T23:00:22.118Z,21.30
2017-08-30T23:02:50.404Z,21.30
2017-08-30T23:05:18.711Z,21.30
2017-08-30T23:07:46.990Z,21.20
2017-08-30T23:10:15.312Z,21.20
2017-08-30T23:12:43.598Z,21.20
2017-08-30T23:15:11.919Z,21.30
2017-08-30T23:17:40.200Z,21.30
2017-08-30T23:20:08.479Z,21.20
2017-08-30T23:22:36.795Z,21.20
2017-08-30T23:25:05.076Z,21.20
2017-08-30T23:27:33.436Z,21.30
2017-08-30T23:30:01.746Z,21.20
2017-08-30T23:32:30.062Z,21.20
2017-08-30T23:34:58.374Z,21.20
2017-08-30T23:37:26.695Z,21.20
2017-08-30T23:39:54.992Z,21.20
2017-08-30T23:42:23.319Z,21.20
2017-08-30T23:44:51.660Z,21.20
2017-08-30T23:47:19.945Z,21.20
2017-08-30T23:49:48.232Z,21.20
2017-08-30T23:52:16.556Z,21.20
2017-08-30T23:54:44.933Z,21.20
2017-08-30T23:57:13.328Z,21.20
2017-08-30T23:59:41.635Z,21.10
